Time;durP1;ratioP1;P1;durP2;ratioP2;P2;SDS_P1;SDS_P2;PMS_P1;PMS_P2;Temp;Humidity;BMP_temperature;BMP_pressure;BME280_temperature;BME280_humidity;BME280_pressure;Samples;Min_cycle;Max_cycle;Signal;HPM_P1;HPM_P2
2022/06/23 00:02:25;;;;;;;11.45;4.72;;;15.00;99.90;;;;;;4955887;28;20058;-79
2022/06/23 00:04:57;;;;;;;13.15;4.68;;;15.00;99.90;;;;;;4940193;28;20178;-79
2022/06/23 00:07:28;;;;;;;11.93;5.88;;;15.00;99.90;;;;;;4953425;28;20479;-78
2022/06/23 00:09:56;;;;;;;13.23;5.10;;;15.00;99.90;;;;;;4971968;28;20063;-78
2022/06/23 00:12:29;;;;;;;24.10;6.72;;;15.00;99.90;;;;;;4973045;28;20406;-78
2022/06/23 00:15:21;;;;;;;6.95;4.38;;;14.90;99.90;;;;;;4942054;28;20046;-79
2022/06/23 00:17:56;;;;;;;14.80;5.82;;;14.90;99.90;;;;;;4971027;28;20050;-80
2022/06/23 00:20:29;;;;;;;4.15;3.70;;;14.90;99.90;;;;;;4953932;28;20066;-77
2022/06/23 00:23:03;;;;;;;11.95;6.22;;;14.80;99.90;;;;;;4971631;28;20054;-78
2022/06/23 00:25:45;;;;;;;15.88;6.07;;;14.80;99.90;;;;;;4970799;28;20465;-78
2022/06/23 00:28:24;;;;;;;14.48;6.53;;;14.70;99.90;;;;;;4970893;28;20503;-78
2022/06/23 00:30:55;;;;;;;9.43;5.03;;;14.80;99.90;;;;;;4936589;29;20078;-78
2022/06/23 00:33:27;;;;;;;10.00;5.13;;;14.70;99.90;;;;;;4953655;29;20043;-78
2022/06/23 00:35:57;;;;;;;9.98;5.88;;;14.70;99.90;;;;;;4966262;28;20478;-78
2022/06/23 00:38:29;;;;;;;16.27;6.28;;;14.60;99.90;;;;;;4970054;28;20423;-78
2022/06/23 00:40:59;;;;;;;9.57;5.28;;;14.60;99.90;;;;;;4938585;28;20431;-79
2022/06/23 00:43:27;;;;;;;11.15;5.43;;;14.60;99.90;;;;;;4970780;28;20070;-78
2022/06/23 00:46:01;;;;;;;11.52;5.43;;;14.50;99.90;;;;;;4953867;28;20086;-79
2022/06/23 00:48:36;;;;;;;11.43;5.18;;;14.50;99.90;;;;;;4954698;28;20050;-79
2022/06/23 00:51:10;;;;;;;12.20;4.97;;;14.40;99.90;;;;;;4972619;28;20140;-79
2022/06/23 00:53:46;;;;;;;10.52;5.30;;;14.40;99.90;;;;;;4969788;28;20133;-79
2022/06/23 00:56:27;;;;;;;9.40;5.35;;;14.30;99.90;;;;;;4952164;28;20133;-79
2022/06/23 00:58:59;;;;;;;12.75;5.38;;;14.20;99.90;;;;;;4939325;28;20573;-78
2022/06/23 01:01:39;;;;;;;12.63;5.50;;;14.20;99.90;;;;;;4972247;28;20085;-79
2022/06/23 01:04:17;;;;;;;14.43;5.45;;;14.10;99.90;;;;;;4968718;28;20050;-79
2022/06/23 01:06:51;;;;;;;13.77;5.95;;;14.20;99.90;;;;;;4954242;28;20042;-79
2022/06/23 01:09:24;;;;;;;10.32;5.65;;;14.10;99.90;;;;;;4972752;28;20157;-80
2022/06/23 01:11:56;;;;;;;12.75;6.22;;;14.00;99.90;;;;;;4968605;28;20602;-79
2022/06/23 01:14:34;;;;;;;8.98;5.32;;;14.00;99.90;;;;;;4969701;28;20431;-78
2022/06/23 01:17:13;;;;;;;11.20;5.22;;;13.90;99.90;;;;;;4970496;28;20431;-78
2022/06/23 01:20:17;;;;;;;17.35;5.88;;;13.80;99.90;;;;;;4970436;28;20566;-76
2022/06/23 01:23:23;;;;;;;9.52;4.88;;;13.80;99.90;;;;;;4935831;28;20507;-77
2022/06/23 01:26:08;;;;;;;13.40;5.15;;;13.70;99.90;;;;;;4915611;28;20438;-78
2022/06/23 01:28:39;;;;;;;12.18;5.00;;;13.70;99.90;;;;;;4955201;28;20526;-78
2022/06/23 01:31:14;;;;;;;10.02;5.53;;;13.70;99.90;;;;;;4967184;28;20073;-78
2022/06/23 01:33:49;;;;;;;11.02;5.18;;;13.70;99.90;;;;;;4970516;28;20054;-77
2022/06/23 01:36:21;;;;;;;9.85;5.03;;;13.60;99.90;;;;;;4953458;28;20066;-79
2022/06/23 01:39:00;;;;;;;7.57;5.03;;;13.60;99.90;;;;;;4938588;28;20062;-79
2022/06/23 01:41:33;;;;;;;14.15;5.90;;;13.60;99.90;;;;;;4964937;28;20065;-78
2022/06/23 01:44:10;;;;;;;11.75;4.97;;;13.50;99.90;;;;;;4954005;28;20055;-78
2022/06/23 01:46:40;;;;;;;11.85;5.22;;;13.50;99.90;;;;;;4971968;28;20538;-78
2022/06/23 01:49:14;;;;;;;11.23;5.82;;;13.50;99.90;;;;;;4950815;28;20141;-78
2022/06/23 01:51:46;;;;;;;10.65;5.35;;;13.40;99.90;;;;;;4970251;28;20142;-78
2022/06/23 01:54:17;;;;;;;12.07;4.93;;;13.50;99.90;;;;;;4952505;28;20070;-79
2022/06/23 01:56:53;;;;;;;14.15;5.88;;;13.50;99.90;;;;;;4971630;28;20538;-79
2022/06/23 01:59:43;;;;;;;14.52;4.53;;;13.50;99.90;;;;;;4968481;28;20455;-79
2022/06/23 02:02:33;;;;;;;13.95;5.57;;;13.40;99.90;;;;;;4973402;28;20054;-79
2022/06/23 02:05:05;;;;;;;12.70;5.82;;;13.40;99.90;;;;;;4975570;28;20049;-79
2022/06/23 02:07:37;;;;;;;7.95;5.50;;;13.50;99.90;;;;;;4973337;28;20414;-79
2022/06/23 02:10:15;;;;;;;12.50;5.72;;;13.60;99.90;;;;;;4953298;29;20051;-79
2022/06/23 02:12:48;;;;;;;9.63;5.57;;;13.60;99.90;;;;;;4958502;28;20050;-79
2022/06/23 02:15:47;;;;;;;14.00;5.88;;;13.60;99.90;;;;;;4961382;28;20418;-79
2022/06/23 02:18:24;;;;;;;21.45;6.45;;;13.60;99.90;;;;;;4955037;28;20078;-79
2022/06/23 02:21:06;;;;;;;13.65;6.38;;;13.70;99.90;;;;;;4955804;28;20419;-79
2022/06/23 02:23:42;;;;;;;12.32;6.57;;;13.80;99.90;;;;;;4973770;28;20065;-79
2022/06/23 02:26:18;;;;;;;17.30;6.72;;;13.80;99.90;;;;;;4970929;28;20066;-78
2022/06/23 02:28:54;;;;;;;18.40;5.68;;;13.80;99.90;;;;;;4936105;29;20071;-79
2022/06/23 02:31:27;;;;;;;18.33;7.40;;;13.90;99.90;;;;;;4928157;28;20519;-79
2022/06/23 02:34:00;;;;;;;17.23;6.07;;;13.90;99.90;;;;;;4974550;28;20057;-79
2022/06/23 02:36:54;;;;;;;12.77;6.13;;;13.90;99.90;;;;;;4970681;28;20109;-78
2022/06/23 02:39:32;;;;;;;14.27;6.78;;;13.90;99.90;;;;;;4954810;28;20054;-79
2022/06/23 02:42:03;;;;;;;11.38;6.28;;;13.80;99.90;;;;;;4972221;28;20133;-78
2022/06/23 02:44:53;;;;;;;14.57;6.45;;;13.80;99.90;;;;;;4954061;28;20051;-78
2022/06/23 02:47:33;;;;;;;13.18;6.40;;;13.80;99.90;;;;;;4935119;29;20043;-79
2022/06/23 02:50:29;;;;;;;22.95;6.82;;;13.80;99.90;;;;;;4952943;29;20086;-79
2022/06/23 02:53:36;;;;;;;17.73;7.20;;;13.80;99.90;;;;;;4954466;29;20558;-79
2022/06/23 02:56:32;;;;;;;16.88;6.80;;;13.80;99.90;;;;;;4909375;29;20086;-78
2022/06/23 02:59:08;;;;;;;17.80;7.28;;;13.80;99.90;;;;;;4970877;28;20054;-78
2022/06/23 03:01:41;;;;;;;27.05;8.18;;;13.80;99.90;;;;;;4940520;28;20055;-79
2022/06/23 03:04:19;;;;;;;15.45;7.78;;;13.90;99.90;;;;;;4954520;28;20051;-77
2022/06/23 03:06:53;;;;;;;23.08;7.97;;;13.90;99.90;;;;;;4971575;28;20101;-79
2022/06/23 03:09:28;;;;;;;24.13;8.35;;;13.90;99.90;;;;;;4972607;28;20057;-78
2022/06/23 03:12:01;;;;;;;24.73;9.00;;;14.00;99.90;;;;;;4969791;28;20047;-77
2022/06/23 03:14:39;;;;;;;20.75;9.50;;;14.00;99.90;;;;;;4971429;28;20057;-78
2022/06/23 03:17:17;;;;;;;17.08;8.77;;;14.10;99.90;;;;;;4955962;28;20074;-79
2022/06/23 03:22:48;;;;;;;24.98;9.95;;;14.20;99.90;;;;;;5080268;28;20447;-79
2022/06/23 03:25:22;;;;;;;25.52;11.45;;;14.20;99.90;;;;;;5067383;28;20049;-79
2022/06/23 03:27:53;;;;;;;21.17;9.90;;;14.30;99.90;;;;;;5078806;28;20045;-79
2022/06/23 03:30:24;;;;;;;29.67;10.85;;;14.40;99.90;;;;;;5065870;28;20045;-78
2022/06/23 03:32:56;;;;;;;32.70;11.65;;;14.40;99.90;;;;;;5075972;28;20699;-79
2022/06/23 03:35:29;;;;;;;24.15;10.38;;;14.50;99.90;;;;;;5065889;28;20603;-79
2022/06/23 03:38:04;;;;;;;26.33;11.45;;;14.50;99.90;;;;;;5066438;28;20063;-79
2022/06/23 03:43:36;;;;;;;26.13;10.50;;;14.70;99.90;;;;;;5064698;28;20190;-80
2022/06/23 03:46:11;;;;;;;17.88;9.52;;;14.80;99.90;;;;;;5076823;28;20531;-79
2022/06/23 03:48:44;;;;;;;21.58;10.75;;;14.80;99.90;;;;;;5088041;28;20058;-80
2022/06/23 03:51:13;;;;;;;;;;;14.90;99.90;;;;;;5070873;28;20053;-79
2022/06/23 03:53:51;;;;;;;26.83;11.23;;;14.90;99.90;;;;;;5048631;28;20006;-79
2022/06/23 03:56:21;;;;;;;22.73;10.85;;;15.00;99.90;;;;;;5066179;28;20059;-79
2022/06/23 03:58:55;;;;;;;22.25;12.25;;;15.00;99.90;;;;;;5076892;28;20075;-79
2022/06/23 04:01:29;;;;;;;21.27;10.63;;;15.10;99.90;;;;;;5066564;28;20083;-79
2022/06/23 04:04:02;;;;;;;29.77;11.35;;;15.20;99.90;;;;;;5069238;28;20052;-79
2022/06/23 04:06:35;;;;;;;24.70;11.98;;;15.30;99.90;;;;;;5084965;28;20052;-80
2022/06/23 04:09:11;;;;;;;20.02;11.20;;;15.40;99.90;;;;;;5068801;28;20571;-78
2022/06/23 04:11:53;;;;;;;20.38;10.80;;;15.50;99.90;;;;;;5079414;28;20044;-77
2022/06/23 04:14:26;;;;;;;21.73;11.45;;;15.60;99.90;;;;;;5087681;28;20048;-82
2022/06/23 04:17:05;;;;;;;24.55;12.57;;;15.60;99.90;;;;;;5083279;28;20059;-78
2022/06/23 04:19:34;;;;;;;25.83;11.35;;;15.70;99.90;;;;;;5081938;28;20052;-78
2022/06/23 04:22:06;;;;;;;22.55;10.98;;;15.80;99.90;;;;;;5083283;28;20056;-79
2022/06/23 04:24:37;;;;;;;19.75;10.90;;;15.80;99.90;;;;;;5083061;28;20086;-78
2022/06/23 04:27:12;;;;;;;22.60;12.63;;;16.00;99.90;;;;;;5053922;28;20037;-78
2022/06/23 04:29:40;;;;;;;21.92;12.55;;;16.10;99.90;;;;;;5065726;28;20052;-78
2022/06/23 04:32:15;;;;;;;26.65;11.93;;;16.10;99.90;;;;;;5073245;28;20539;-79
2022/06/23 04:34:51;;;;;;;23.25;12.00;;;16.20;99.90;;;;;;5053630;28;20049;-79
2022/06/23 04:37:27;;;;;;;24.13;11.95;;;16.30;99.90;;;;;;5037855;28;20073;-77
2022/06/23 04:40:15;;;;;;;27.55;12.60;;;16.40;99.90;;;;;;5051992;28;20048;-77
2022/06/23 04:42:51;;;;;;;18.15;11.82;;;16.40;99.90;;;;;;5052902;28;20076;-78
2022/06/23 04:45:40;;;;;;;23.83;12.48;;;16.50;99.90;;;;;;5055201;28;20132;-78
2022/06/23 04:48:16;;;;;;;25.35;11.82;;;16.60;99.90;;;;;;5060077;28;20570;-78
2022/06/23 04:50:49;;;;;;;21.92;10.70;;;16.70;99.90;;;;;;5073028;28;20074;-79
2022/06/23 04:53:29;;;;;;;;;;;16.80;99.90;;;;;;5073566;28;20056;-79
2022/06/23 04:56:06;;;;;;;23.67;10.85;;;16.90;99.90;;;;;;5057588;28;19925;-79
2022/06/23 04:58:37;;;;;;;20.70;10.43;;;17.00;99.90;;;;;;5071737;28;20045;-79
2022/06/23 05:01:18;;;;;;;20.63;11.98;;;17.00;99.90;;;;;;5060904;28;20061;-78
2022/06/23 05:03:49;;;;;;;21.85;11.43;;;17.10;99.90;;;;;;5064842;28;20492;-77
2022/06/23 05:06:28;;;;;;;27.00;11.65;;;17.20;99.90;;;;;;5054061;28;20052;-77
2022/06/23 05:09:00;;;;;;;24.70;11.27;;;17.30;99.90;;;;;;5062570;28;20048;-80
2022/06/23 05:11:34;;;;;;;23.33;12.43;;;17.50;99.90;;;;;;5051418;28;20114;-79
2022/06/23 05:14:06;;;;;;;20.20;10.57;;;17.60;99.90;;;;;;5063667;28;20049;-78
2022/06/23 05:16:39;;;;;;;23.02;11.80;;;17.70;99.90;;;;;;5051398;28;20053;-79
2022/06/23 05:19:10;;;;;;;28.23;12.90;;;17.80;99.90;;;;;;5059075;28;20675;-79
2022/06/23 05:21:42;;;;;;;23.15;12.38;;;17.90;99.90;;;;;;5070358;28;20052;-79
2022/06/23 05:24:19;;;;;;;24.35;11.27;;;18.10;99.90;;;;;;5063324;28;20429;-80
2022/06/23 05:26:54;;;;;;;26.85;11.40;;;18.30;99.90;;;;;;5072116;28;20056;-79
2022/06/23 05:29:28;;;;;;;26.10;11.93;;;18.50;99.90;;;;;;5073123;28;20051;-80
2022/06/23 05:32:00;;;;;;;23.10;12.00;;;18.70;99.90;;;;;;5059770;28;20049;-76
2022/06/23 05:34:32;;;;;;;22.02;11.43;;;18.90;99.90;;;;;;5068447;28;20106;-77
2022/06/23 05:37:06;;;;;;;23.85;12.20;;;19.10;99.90;;;;;;5068732;28;20083;-78
2022/06/23 05:39:43;;;;;;;24.30;11.25;;;19.30;99.90;;;;;;5058187;28;20063;-78
2022/06/23 05:42:17;;;;;;;32.15;11.25;;;19.50;99.90;;;;;;5057300;28;20057;-81
2022/06/23 05:44:56;;;;;;;22.40;10.15;;;19.90;99.90;;;;;;5047545;28;20045;-80
2022/06/23 05:47:29;;;;;;;30.55;11.63;;;20.40;99.90;;;;;;5051767;28;20059;-81
2022/06/23 05:50:00;;;;;;;25.73;10.73;;;21.00;99.90;;;;;;5051836;28;20421;-77
2022/06/23 05:52:33;;;;;;;20.80;9.93;;;21.50;99.90;;;;;;5070214;28;20044;-78
2022/06/23 05:55:03;;;;;;;;;;;22.10;99.90;;;;;;5061774;28;20171;-77
2022/06/23 05:57:37;;;;;;;22.45;10.00;;;22.50;99.90;;;;;;5052887;28;19924;-78
2022/06/23 06:00:16;;;;;;;19.90;9.55;;;22.90;99.90;;;;;;5054781;28;20052;-79
2022/06/23 06:02:49;;;;;;;23.83;9.57;;;23.30;99.90;;;;;;5057920;28;20084;-79
2022/06/23 06:05:23;;;;;;;21.85;9.93;;;23.80;99.90;;;;;;5062936;28;20057;-78
2022/06/23 06:07:51;;;;;;;27.42;10.43;;;24.10;99.90;;;;;;5062592;28;20056;-78
2022/06/23 06:10:26;;;;;;;13.95;9.90;;;24.50;96.60;;;;;;5052743;28;20052;-80
2022/06/23 06:12:57;;;;;;;22.27;10.23;;;24.90;96.60;;;;;;5048629;28;20041;-79
2022/06/23 06:15:28;;;;;;;18.95;8.98;;;25.30;92.30;;;;;;5052854;28;20132;-79
2022/06/23 06:18:05;;;;;;;17.35;9.15;;;25.80;87.40;;;;;;5057521;28;20179;-79
2022/06/23 06:20:32;;;;;;;14.68;8.15;;;26.50;82.70;;;;;;5049577;28;20061;-78
2022/06/23 06:23:05;;;;;;;26.85;9.10;;;26.90;80.50;;;;;;5063741;28;20067;-78
2022/06/23 06:25:35;;;;;;;17.40;8.55;;;27.00;78.00;;;;;;5070435;28;20576;-78
2022/06/23 06:28:15;;;;;;;19.98;8.25;;;27.20;75.70;;;;;;5061731;28;20061;-79
2022/06/23 06:30:50;;;;;;;22.02;9.23;;;27.50;70.80;;;;;;5062147;28;20390;-79
2022/06/23 06:33:30;;;;;;;19.58;8.68;;;27.60;73.00;;;;;;5057374;28;20049;-79
2022/06/23 06:35:58;;;;;;;22.25;8.85;;;27.80;69.20;;;;;;5049657;28;20053;-78
2022/06/23 06:38:27;;;;;;;19.58;7.80;;;28.00;69.50;;;;;;5065320;28;20110;-79
2022/06/23 06:40:56;;;;;;;13.15;5.55;;;28.10;68.70;;;;;;5068718;28;20052;-79
2022/06/23 06:43:30;;;;;;;5.43;4.60;;;28.20;64.20;;;;;;5049042;28;20056;-79
2022/06/23 06:45:58;;;;;;;7.00;4.05;;;28.60;59.60;;;;;;5040732;28;20386;-79
2022/06/23 06:48:30;;;;;;;6.00;3.17;;;28.80;59.90;;;;;;5063636;28;20287;-79
2022/06/23 06:51:03;;;;;;;5.93;3.88;;;29.10;58.40;;;;;;5044399;28;20059;-79
2022/06/23 06:53:35;;;;;;;8.88;4.03;;;29.30;56.20;;;;;;5045801;28;20130;-79
2022/06/23 06:56:09;;;;;;;5.85;3.00;;;29.60;54.80;;;;;;5052900;28;20139;-79
2022/06/23 06:58:42;;;;;;;3.30;2.90;;;30.00;55.10;;;;;;5065926;28;20055;-79
2022/06/23 07:01:15;;;;;;;3.28;2.95;;;30.20;53.70;;;;;;5067879;28;20094;-79
2022/06/23 07:03:47;;;;;;;4.45;2.47;;;30.40;53.60;;;;;;5036648;28;20122;-79
2022/06/23 07:06:19;;;;;;;3.20;2.30;;;30.50;51.20;;;;;;5054766;28;20433;-79
2022/06/23 07:08:52;;;;;;;1.88;1.70;;;30.70;49.90;;;;;;5054273;28;20142;-80
2022/06/23 07:11:25;;;;;;;2.65;1.50;;;30.80;50.40;;;;;;5057119;28;20144;-80
2022/06/23 07:14:00;;;;;;;1.88;1.70;;;31.10;48.30;;;;;;5059374;28;20118;-79
2022/06/23 07:16:36;;;;;;;3.05;1.70;;;31.40;48.00;;;;;;5039225;28;20147;-79
2022/06/23 07:19:11;;;;;;;6.35;2.38;;;31.50;49.60;;;;;;5037272;28;20049;-79
2022/06/23 07:21:43;;;;;;;9.30;2.22;;;31.50;48.30;;;;;;5055953;28;20147;-79
2022/06/23 07:24:16;;;;;;;6.97;2.20;;;31.70;49.50;;;;;;5056076;28;20060;-77
2022/06/23 07:26:48;;;;;;;5.13;2.50;;;32.00;48.20;;;;;;5049117;28;20239;-77
2022/06/23 07:29:38;;;;;;;;;;;32.20;47.30;;;;;;5051446;28;20051;-77
2022/06/23 07:32:14;;;;;;;4.07;2.30;;;32.30;47.60;;;;;;5049853;28;19932;-77
2022/06/23 07:34:50;;;;;;;5.18;2.10;;;32.40;48.40;;;;;;5048238;28;20055;-78
2022/06/23 07:37:26;;;;;;;3.50;1.77;;;32.50;47.50;;;;;;5049863;28;20087;-77
2022/06/23 07:40:01;;;;;;;5.80;1.98;;;32.80;46.70;;;;;;5049365;28;20052;-78
2022/06/23 07:42:47;;;;;;;3.00;1.75;;;32.90;45.80;;;;;;5054117;28;20398;-79
2022/06/23 07:45:22;;;;;;;3.42;2.22;;;33.00;46.80;;;;;;5048597;28;20512;-79
2022/06/23 07:47:49;;;;;;;2.40;1.65;;;33.20;47.10;;;;;;5048972;28;20048;-78
2022/06/23 07:50:16;;;;;;;3.92;1.77;;;33.30;45.20;;;;;;5049842;28;20479;-77
2022/06/23 07:52:46;;;;;;;10.05;2.38;;;33.50;45.50;;;;;;5052246;28;20048;-78
2022/06/23 07:55:20;;;;;;;7.88;2.10;;;33.60;44.90;;;;;;5029797;28;20053;-78
2022/06/23 07:57:47;;;;;;;4.05;2.10;;;33.70;44.10;;;;;;5048803;28;20460;-78
2022/06/23 08:00:17;;;;;;;9.57;2.40;;;33.90;44.00;;;;;;5050281;28;20056;-78
2022/06/23 08:02:50;;;;;;;7.53;1.83;;;34.20;43.30;;;;;;5054339;28;20052;-78
2022/06/23 08:05:23;;;;;;;6.30;2.20;;;34.60;44.30;;;;;;5064787;28;20045;-79
2022/06/23 08:07:50;;;;;;;4.88;2.13;;;34.70;44.30;;;;;;5067903;28;20048;-78
2022/06/23 08:10:22;;;;;;;6.72;3.00;;;34.60;43.40;;;;;;5063588;28;20470;-79
2022/06/23 08:12:55;;;;;;;4.90;1.75;;;34.50;42.40;;;;;;5071296;28;20140;-78
2022/06/23 08:18:29;;;;;;;5.38;1.85;;;34.80;42.90;;;;;;5067126;28;20550;-77
2022/06/23 08:21:04;;;;;;;4.10;1.40;;;34.90;43.80;;;;;;5070739;28;20055;-79
2022/06/23 08:23:37;;;;;;;6.03;2.50;;;35.00;43.00;;;;;;5052353;28;20053;-79
2022/06/23 08:26:07;;;;;;;5.78;1.90;;;35.00;41.30;;;;;;5036053;28;20500;-79
2022/06/23 08:28:35;;;;;;;5.40;1.83;;;35.20;42.50;;;;;;5051996;28;20068;-78
2022/06/23 08:31:05;;;;;;;5.70;2.05;;;35.50;43.50;;;;;;5052053;28;20056;-79
2022/06/23 08:33:33;;;;;;;5.50;2.17;;;35.60;41.90;;;;;;5051608;28;20440;-78
2022/06/23 08:36:08;;;;;;;3.17;2.03;;;35.70;42.30;;;;;;5051718;28;20044;-79
2022/06/23 08:38:39;;;;;;;4.82;1.85;;;36.00;43.90;;;;;;5047484;28;20435;-78
2022/06/23 08:41:19;;;;;;;7.43;1.63;;;36.00;42.80;;;;;;5051247;28;20107;-77
2022/06/23 08:43:51;;;;;;;3.65;1.80;;;36.20;42.60;;;;;;5059252;28;20101;-76
2022/06/23 08:46:21;;;;;;;;;;;36.50;39.10;;;;;;5064127;28;20040;-75
2022/06/23 08:49:02;;;;;;;4.65;1.80;;;36.50;38.80;;;;;;5060669;28;19924;-76
2022/06/23 08:51:40;;;;;;;3.57;1.57;;;36.70;38.80;;;;;;5063178;28;20045;-75
2022/06/23 08:54:14;;;;;;;6.32;1.92;;;37.10;38.10;;;;;;5053678;28;20667;-75
2022/06/23 08:56:52;;;;;;;3.45;1.90;;;37.00;37.90;;;;;;5061053;28;20048;-76
2022/06/23 08:59:26;;;;;;;5.38;1.85;;;36.70;38.90;;;;;;5049775;28;20056;-80
2022/06/23 09:02:06;;;;;;;2.25;1.60;;;37.00;40.00;;;;;;5059847;28;20048;-76
2022/06/23 09:04:45;;;;;;;2.17;1.98;;;37.10;38.50;;;;;;5060975;28;20057;-75
2022/06/23 09:07:18;;;;;;;5.28;1.83;;;37.00;39.20;;;;;;5057081;28;20423;-76
2022/06/23 09:10:00;;;;;;;2.92;1.67;;;36.80;39.80;;;;;;5054765;28;20140;-76
2022/06/23 09:12:37;;;;;;;2.17;1.85;;;36.90;40.30;;;;;;5059473;28;20041;-76
2022/06/23 09:15:32;;;;;;;8.80;1.73;;;36.90;39.80;;;;;;5054711;28;20049;-76
2022/06/23 09:18:35;;;;;;;3.33;1.80;;;36.90;37.60;;;;;;5055647;28;20076;-76
2022/06/23 09:21:21;;;;;;;4.68;1.95;;;36.80;37.70;;;;;;5062649;28;20045;-75
2022/06/23 09:24:24;;;;;;;1.83;1.73;;;36.70;38.10;;;;;;5035014;28;20044;-76
2022/06/23 09:26:58;;;;;;;2.90;1.90;;;36.60;38.90;;;;;;5045947;28;20057;-76
2022/06/23 09:29:48;;;;;;;2.85;1.55;;;36.30;38.50;;;;;;5058166;28;20405;-75
2022/06/23 09:32:21;;;;;;;4.05;1.60;;;36.20;38.10;;;;;;5050185;28;20051;-76
2022/06/23 09:35:07;;;;;;;2.17;1.80;;;36.30;38.00;;;;;;5050212;28;20140;-75
2022/06/23 09:37:53;;;;;;;2.13;1.70;;;36.30;37.90;;;;;;5049977;28;20599;-75
2022/06/23 09:40:34;;;;;;;1.75;1.65;;;36.20;37.30;;;;;;5051010;28;20053;-75
2022/06/23 09:43:32;;;;;;;1.55;1.45;;;36.20;38.50;;;;;;5057859;28;20048;-75
2022/06/23 09:46:20;;;;;;;5.43;1.50;;;36.30;40.50;;;;;;5065852;28;20048;-75
2022/06/23 09:49:03;;;;;;;2.00;1.90;;;36.20;38.70;;;;;;5070582;28;20144;-75
2022/06/23 09:52:12;;;;;;;2.08;1.67;;;36.00;39.30;;;;;;5061190;28;20061;-74
2022/06/23 09:55:20;;;;;;;5.15;1.80;;;35.50;38.40;;;;;;5028475;28;20084;-76
2022/06/23 09:58:10;;;;;;;2.78;2.58;;;34.90;38.70;;;;;;4991107;28;20038;-77
2022/06/23 10:00:49;;;;;;;6.40;1.75;;;34.40;39.80;;;;;;5059156;28;20416;-77
2022/06/23 10:03:37;;;;;;;1.90;1.17;;;34.10;39.40;;;;;;5051459;28;20053;-77
2022/06/23 10:06:18;;;;;;;2.33;1.50;;;34.10;39.60;;;;;;5064316;28;20057;-77
2022/06/23 10:08:56;;;;;;;2.37;1.10;;;34.10;39.40;;;;;;5051702;28;20459;-76
2022/06/23 10:11:41;;;;;;;2.65;1.10;;;34.40;40.40;;;;;;5053220;28;20732;-76
2022/06/23 10:14:22;;;;;;;2.60;1.95;;;34.80;39.70;;;;;;5051360;28;20139;-76
2022/06/23 10:17:08;;;;;;;2.25;1.52;;;35.20;39.70;;;;;;5064372;28;20059;-76
2022/06/23 10:19:53;;;;;;;2.47;1.42;;;35.50;38.90;;;;;;5047937;28;20517;-77
2022/06/23 10:22:39;;;;;;;1.77;1.67;;;35.50;38.00;;;;;;5060179;28;20492;-76
2022/06/23 10:25:26;;;;;;;1.67;1.13;;;35.20;38.40;;;;;;5060158;28;20047;-76
2022/06/23 10:28:21;;;;;;;1.40;1.30;;;34.50;39.10;;;;;;5051065;28;20044;-77
2022/06/23 10:30:56;;;;;;;2.03;1.40;;;34.10;40.30;;;;;;5044394;28;20072;-76
2022/06/23 10:33:59;;;;;;;81.65;7.22;;;34.30;41.20;;;;;;5050816;28;20056;-76
2022/06/23 10:36:48;;;;;;;156.43;11.23;;;34.80;39.80;;;;;;5050934;28;20546;-76
2022/06/23 10:39:40;;;;;;;21.55;2.45;;;35.20;40.10;;;;;;5050786;28;20072;-76
2022/06/23 10:42:30;;;;;;;401.02;36.25;;;35.30;39.40;;;;;;5059704;28;20059;-76
2022/06/23 10:45:13;;;;;;;47.50;4.10;;;35.70;39.60;;;;;;5052670;28;20056;-76
2022/06/23 10:48:22;;;;;;;2.17;1.80;;;36.50;39.10;;;;;;5060975;28;20401;-77
2022/06/23 10:50:58;;;;;;;2.75;1.70;;;36.20;38.20;;;;;;5050931;28;20060;-77
2022/06/23 10:54:01;;;;;;;2.78;1.70;;;35.30;39.10;;;;;;5068302;28;20406;-77
2022/06/23 10:56:50;;;;;;;7.70;1.75;;;34.40;40.30;;;;;;5034442;28;20080;-77
2022/06/23 10:59:37;;;;;;;1.88;1.58;;;33.70;42.40;;;;;;5049865;28;20048;-77
2022/06/23 11:02:52;;;;;;;4.45;1.90;;;33.30;41.00;;;;;;5051296;28;20472;-78
2022/06/23 11:05:46;;;;;;;3.05;1.55;;;32.90;41.30;;;;;;5058774;28;20040;-76
2022/06/23 11:08:33;;;;;;;2.22;1.67;;;32.50;42.10;;;;;;5067816;28;20559;-76
2022/06/23 11:11:29;;;;;;;1.85;1.75;;;32.10;43.10;;;;;;5055297;28;20060;-76
2022/06/23 11:14:04;;;;;;;4.32;1.83;;;32.00;44.50;;;;;;5047404;28;20061;-76
2022/06/23 11:16:39;;;;;;;2.97;1.70;;;32.00;43.40;;;;;;5057507;28;20111;-76
2022/06/23 11:19:33;;;;;;;1.90;1.80;;;32.40;44.60;;;;;;5055285;28;20052;-77
2022/06/23 11:22:18;;;;;;;1.60;1.50;;;32.90;43.40;;;;;;5057828;28;20053;-76
2022/06/23 11:24:58;;;;;;;3.10;1.92;;;33.60;42.50;;;;;;5051268;28;20056;-76
2022/06/23 11:27:33;;;;;;;2.15;1.52;;;34.10;41.80;;;;;;5058146;28;20075;-75
2022/06/23 11:30:14;;;;;;;1.83;1.67;;;34.60;41.00;;;;;;5055524;28;20141;-76
2022/06/23 11:32:57;;;;;;;5.13;2.13;;;34.90;40.50;;;;;;5055695;28;20148;-75
2022/06/23 11:35:41;;;;;;;2.20;2.10;;;35.40;41.10;;;;;;5054374;28;20052;-74
2022/06/23 11:38:41;;;;;;;3.67;1.80;;;36.30;41.80;;;;;;5048465;28;20052;-74
2022/06/23 11:41:27;;;;;;;3.47;1.80;;;37.00;38.50;;;;;;5050922;28;20094;-76
2022/06/23 11:44:12;;;;;;;5.35;1.70;;;37.30;37.80;;;;;;5053678;28;20451;-76
2022/06/23 11:46:51;;;;;;;3.15;1.95;;;36.90;38.90;;;;;;5067646;28;20036;-75
2022/06/23 11:49:44;;;;;;;6.68;2.38;;;35.50;39.10;;;;;;5058229;28;20044;-76
2022/06/23 11:52:32;;;;;;;6.90;2.15;;;34.50;41.20;;;;;;5056492;28;20049;-76
2022/06/23 11:55:18;;;;;;;3.05;1.60;;;34.30;44.00;;;;;;5064222;28;20187;-75
2022/06/23 11:58:25;;;;;;;3.08;1.65;;;34.30;44.00;;;;;;5055384;28;20397;-75
2022/06/23 12:01:06;;;;;;;4.25;2.22;;;34.60;43.20;;;;;;5026745;28;20091;-74
2022/06/23 12:04:03;;;;;;;3.67;1.73;;;35.10;41.50;;;;;;5057593;28;20095;-75
2022/06/23 12:06:43;;;;;;;2.92;1.88;;;35.20;40.50;;;;;;5027717;28;20045;-74
2022/06/23 12:09:21;;;;;;;4.00;1.70;;;35.10;41.50;;;;;;5059660;28;20045;-74
2022/06/23 12:11:49;;;;;;;10.23;2.58;;;34.90;41.40;;;;;;5055314;28;20061;-75
2022/06/23 12:14:18;;;;;;;5.47;2.22;;;34.40;41.20;;;;;;5066974;28;20788;-75
2022/06/23 12:16:53;;;;;;;2.60;2.00;;;33.70;41.90;;;;;;5072612;28;20454;-74
2022/06/23 12:19:25;;;;;;;5.22;2.10;;;32.80;42.40;;;;;;5057349;28;20053;-74
2022/06/23 12:21:59;;;;;;;5.68;1.98;;;32.10;43.70;;;;;;5060783;28;20051;-74
2022/06/23 12:24:37;;;;;;;5.47;2.22;;;31.60;44.10;;;;;;5064509;28;20052;-75
2022/06/23 12:27:11;;;;;;;3.45;1.90;;;31.40;44.50;;;;;;5051714;28;20052;-75
2022/06/23 12:29:46;;;;;;;6.97;2.50;;;31.20;44.90;;;;;;5066682;28;20055;-74
2022/06/23 12:32:20;;;;;;;6.07;2.25;;;30.80;45.70;;;;;;5056717;28;20487;-73
2022/06/23 12:34:58;;;;;;;13.32;2.38;;;30.30;46.40;;;;;;5054281;28;20167;-74
2022/06/23 12:37:33;;;;;;;2.85;2.20;;;29.80;47.00;;;;;;5067512;28;20503;-74
2022/06/23 12:40:06;;;;;;;4.80;2.33;;;29.40;47.80;;;;;;5069082;28;20052;-75
2022/06/23 12:42:37;;;;;;;4.00;2.00;;;28.90;49.00;;;;;;5056587;28;20059;-74
2022/06/23 12:45:31;;;;;;;3.40;2.30;;;28.60;48.80;;;;;;5061631;28;20135;-74
2022/06/23 12:48:15;;;;;;;9.38;3.40;;;28.20;49.20;;;;;;5038803;28;20155;-75
2022/06/23 12:50:58;;;;;;;4.13;2.33;;;28.10;49.60;;;;;;5061829;28;20063;-75
2022/06/23 12:54:04;;;;;;;3.22;2.75;;;28.20;50.10;;;;;;5070627;28;20052;-76
2022/06/23 12:56:52;;;;;;;2.53;2.33;;;28.50;50.40;;;;;;5060902;28;20068;-77
2022/06/23 12:59:28;;;;;;;4.47;2.10;;;28.30;49.80;;;;;;5065717;28;20521;-77
2022/06/23 13:02:05;;;;;;;5.22;2.40;;;28.10;50.40;;;;;;5058201;28;20094;-77
2022/06/23 13:04:46;;;;;;;4.15;2.85;;;27.90;50.50;;;;;;5062972;28;20079;-78
2022/06/23 13:07:21;;;;;;;3.83;2.10;;;27.90;51.10;;;;;;5063226;28;20060;-77
2022/06/23 13:09:55;;;;;;;2.67;2.47;;;27.90;51.50;;;;;;5051074;28;20059;-77
2022/06/23 13:12:29;;;;;;;5.55;2.35;;;27.90;51.30;;;;;;5055621;28;20053;-77
2022/06/23 13:15:02;;;;;;;7.20;2.72;;;28.00;52.10;;;;;;5040871;28;20063;-78
2022/06/23 13:17:35;;;;;;;3.85;3.55;;;28.30;52.00;;;;;;5061460;28;20098;-77
2022/06/23 13:20:13;;;;;;;5.95;2.50;;;28.70;50.90;;;;;;5053264;28;20049;-78
2022/06/23 13:22:47;;;;;;;8.23;3.10;;;29.70;50.90;;;;;;5056393;28;20044;-78
2022/06/23 13:25:22;;;;;;;7.47;3.28;;;30.90;49.40;;;;;;5068330;28;20583;-78
2022/06/23 13:27:54;;;;;;;6.50;2.75;;;31.60;49.10;;;;;;5070838;28;20448;-77
2022/06/23 13:30:24;;;;;;;6.00;2.60;;;31.80;46.80;;;;;;5061294;28;20070;-76
2022/06/23 13:33:01;;;;;;;5.35;2.30;;;31.80;46.20;;;;;;5060337;28;20053;-77
2022/06/23 13:35:35;;;;;;;4.85;2.10;;;31.90;46.30;;;;;;5058458;28;20145;-77
2022/06/23 13:38:15;;;;;;;3.17;2.30;;;31.80;46.90;;;;;;5055867;28;20053;-76
2022/06/23 13:40:48;;;;;;;5.47;2.22;;;31.30;46.60;;;;;;5067508;28;20496;-77
2022/06/23 13:43:26;;;;;;;3.92;2.50;;;30.80;47.70;;;;;;5072102;28;20509;-77
2022/06/23 13:46:01;;;;;;;8.65;2.75;;;30.20;48.70;;;;;;5067729;28;20052;-77